createdAt,value
2018-04-15T00:00:06.960Z,0.00
2018-04-15T00:01:59.883Z,0.00
2018-04-15T00:02:59.883Z,0.00
2018-04-15T00:04:53.356Z,0.00
2018-04-15T00:05:52.805Z,0.00
2018-04-15T00:07:45.723Z,0.00
2018-04-15T00:08:45.727Z,0.00
2018-04-15T00:10:38.651Z,0.00
2018-04-15T00:11:38.649Z,0.00
2018-04-15T00:13:31.591Z,0.00
2018-04-15T00:14:31.579Z,0.00
2018-04-15T00:16:25.049Z,0.00
2018-04-15T00:17:24.506Z,0.00
2018-04-15T00:19:17.446Z,0.00
2018-04-15T00:20:17.426Z,0.00
2018-04-15T00:22:10.363Z,0.00
2018-04-15T00:23:10.354Z,0.00
2018-04-15T00:25:03.262Z,0.00
2018-04-15T00:26:03.273Z,0.00
2018-04-15T00:27:56.193Z,0.00
2018-04-15T00:28:56.197Z,0.00
2018-04-15T00:30:49.095Z,0.00
2018-04-15T00:31:49.118Z,0.00
2018-04-15T00:33:42.041Z,0.00
2018-04-15T00:34:42.039Z,0.00
2018-04-15T00:36:34.941Z,0.00
2018-04-15T00:37:34.964Z,0.00
2018-04-15T00:39:27.881Z,0.00
2018-04-15T00:40:27.883Z,0.00
2018-04-15T00:42:20.873Z,0.00
2018-04-15T00:43:20.807Z,0.00
2018-04-15T00:45:13.704Z,0.00
2018-04-15T00:46:13.741Z,0.00
2018-04-15T00:48:06.647Z,0.00
2018-04-15T00:49:06.649Z,0.00
2018-04-15T00:50:59.554Z,0.00
2018-04-15T00:51:59.585Z,0.00
2018-04-15T00:53:52.492Z,0.00
2018-04-15T00:54:52.512Z,0.00
2018-04-15T00:56:45.966Z,0.00
2018-04-15T00:57:45.421Z,0.00
2018-04-15T00:59:38.334Z,0.00
2018-04-15T01:00:38.335Z,0.00
2018-04-15T01:02:31.259Z,0.00
2018-04-15T01:03:31.260Z,0.00
2018-04-15T01:05:24.190Z,0.00
2018-04-15T01:06:24.210Z,0.00
2018-04-15T01:08:17.130Z,0.00
2018-04-15T01:09:17.135Z,0.00
2018-04-15T01:11:10.036Z,0.00
2018-04-15T01:12:10.057Z,0.00
2018-04-15T01:14:02.985Z,0.00
2018-04-15T01:15:02.981Z,0.00
2018-04-15T01:16:55.880Z,0.00
2018-04-15T01:17:55.903Z,0.00
2018-04-15T01:19:48.902Z,0.00
2018-04-15T01:20:48.823Z,0.00
2018-04-15T01:22:41.742Z,0.00
2018-04-15T01:23:41.741Z,0.00
2018-04-15T01:25:34.647Z,0.00
2018-04-15T01:26:34.668Z,0.00
2018-04-15T01:28:27.586Z,0.00
2018-04-15T01:29:27.583Z,0.00
2018-04-15T01:31:20.491Z,0.00
2018-04-15T01:32:20.509Z,0.00
2018-04-15T01:34:13.429Z,0.00
2018-04-15T01:35:13.430Z,0.00
2018-04-15T01:37:06.329Z,0.00
2018-04-15T01:38:06.349Z,0.00
2018-04-15T01:39:59.840Z,0.00
2018-04-15T01:40:59.272Z,0.00
2018-04-15T01:42:52.172Z,0.00
2018-04-15T01:43:52.195Z,0.00
2018-04-15T01:45:45.111Z,0.00
2018-04-15T01:46:45.116Z,0.00
2018-04-15T01:48:38.033Z,0.00
2018-04-15T01:49:38.037Z,0.00
2018-04-15T01:51:30.943Z,0.00
2018-04-15T01:52:30.963Z,0.00
2018-04-15T01:54:23.952Z,0.00
2018-04-15T01:55:23.885Z,0.00
2018-04-15T01:57:16.779Z,0.00
2018-04-15T01:58:16.802Z,0.00
2018-04-15T02:00:10.293Z,0.00
2018-04-15T02:01:09.729Z,0.00
2018-04-15T02:03:02.627Z,0.00
2018-04-15T02:04:02.649Z,0.00
2018-04-15T02:05:55.567Z,0.00
2018-04-15T02:06:55.570Z,0.00
2018-04-15T02:08:48.496Z,0.00
2018-04-15T02:09:48.494Z,0.00
2018-04-15T02:11:41.395Z,0.00
2018-04-15T02:12:41.416Z,0.00
2018-04-15T02:14:34.423Z,0.00
2018-04-15T02:15:34.340Z,0.00
2018-04-15T02:17:27.239Z,0.00
2018-04-15T02:18:27.261Z,0.00
2018-04-15T02:20:20.203Z,0.00
2018-04-15T02:21:20.186Z,0.00
2018-04-15T02:23:13.109Z,0.00
2018-04-15T02:24:13.109Z,0.00
2018-04-15T02:26:07.221Z,0.00
2018-04-15T02:27:07.226Z,0.00
2018-04-15T02:29:00.143Z,0.00
2018-04-15T02:30:00.148Z,0.00
2018-04-15T02:31:53.051Z,0.00
2018-04-15T02:32:53.069Z,0.00
2018-04-15T02:34:45.991Z,0.00
2018-04-15T02:35:45.995Z,0.00
2018-04-15T02:37:38.897Z,0.00
2018-04-15T02:38:38.917Z,0.00
2018-04-15T02:40:31.841Z,0.00
2018-04-15T02:41:31.842Z,0.00
2018-04-15T02:43:24.745Z,0.00
2018-04-15T02:44:24.765Z,0.00
2018-04-15T02:46:17.684Z,0.00
2018-04-15T02:47:17.690Z,0.00
2018-04-15T02:49:10.609Z,0.00
2018-04-15T02:50:10.608Z,0.00
2018-04-15T02:52:03.513Z,0.00
2018-04-15T02:53:03.537Z,0.00
2018-04-15T02:54:56.658Z,0.00
2018-04-15T02:55:56.664Z,0.00
2018-04-15T02:57:49.560Z,0.00
2018-04-15T02:58:49.598Z,0.00
2018-04-15T03:00:42.502Z,0.00
2018-04-15T03:01:42.521Z,0.00
2018-04-15T03:03:35.408Z,0.00
2018-04-15T03:04:35.434Z,0.00
2018-04-15T03:06:28.347Z,0.00
2018-04-15T03:07:28.352Z,0.00
2018-04-15T03:09:21.288Z,0.00
2018-04-15T03:10:21.294Z,0.00
2018-04-15T03:12:14.269Z,0.00
2018-04-15T03:13:14.234Z,0.00
2018-04-15T03:15:07.153Z,0.00
2018-04-15T03:16:07.159Z,0.00
2018-04-15T03:18:00.130Z,0.00
2018-04-15T03:19:00.077Z,0.00
2018-04-15T03:20:52.996Z,0.00
2018-04-15T03:21:53.003Z,0.00
2018-04-15T03:23:45.898Z,0.00
2018-04-15T03:24:45.920Z,0.00
2018-04-15T03:26:38.841Z,0.00
2018-04-15T03:27:38.844Z,0.00
2018-04-15T03:29:31.836Z,0.00
2018-04-15T03:30:31.768Z,0.00
2018-04-15T03:32:24.674Z,0.00
2018-04-15T03:33:24.696Z,0.00
2018-04-15T03:35:17.610Z,0.00
2018-04-15T03:36:17.614Z,0.00
2018-04-15T03:38:10.514Z,0.00
2018-04-15T03:39:10.535Z,0.00
2018-04-15T03:41:03.458Z,0.00
2018-04-15T03:42:03.463Z,0.00
2018-04-15T03:43:56.402Z,0.00
2018-04-15T03:44:56.383Z,0.00
2018-04-15T03:46:49.308Z,0.00
2018-04-15T03:47:49.309Z,0.00
2018-04-15T03:49:42.942Z,0.00
2018-04-15T03:50:42.232Z,0.00
2018-04-15T03:52:35.129Z,0.00
2018-04-15T03:53:35.151Z,0.00
2018-04-15T03:55:28.073Z,0.00
2018-04-15T03:56:28.074Z,0.00
2018-04-15T03:58:20.972Z,0.00
2018-04-15T03:59:20.996Z,0.00
2018-04-15T04:01:13.916Z,0.00
2018-04-15T04:02:13.919Z,0.00
2018-04-15T04:04:06.830Z,0.00
2018-04-15T04:05:06.846Z,0.00
2018-04-15T04:06:59.767Z,0.00
2018-04-15T04:07:59.771Z,0.00
2018-04-15T04:09:52.691Z,0.00
2018-04-15T04:10:52.694Z,0.00
2018-04-15T04:12:45.691Z,0.00
2018-04-15T04:13:45.619Z,0.00
2018-04-15T04:15:38.555Z,0.00
2018-04-15T04:16:38.571Z,0.00
2018-04-15T04:18:31.448Z,0.00
2018-04-15T04:19:31.463Z,0.00
2018-04-15T04:21:24.390Z,0.00
2018-04-15T04:22:24.386Z,0.00
2018-04-15T04:24:17.285Z,0.00
2018-04-15T04:25:17.309Z,0.00
2018-04-15T04:27:10.245Z,0.00
2018-04-15T04:28:10.231Z,0.00
2018-04-15T04:30:03.172Z,0.00
2018-04-15T04:31:03.154Z,0.00
2018-04-15T04:32:56.065Z,0.00
2018-04-15T04:33:56.092Z,0.00
2018-04-15T04:35:49.007Z,0.00
2018-04-15T04:36:49.008Z,0.00
2018-04-15T04:38:41.908Z,0.00
2018-04-15T04:39:41.930Z,0.00
2018-04-15T04:41:34.852Z,0.00
2018-04-15T04:42:34.858Z,0.00
2018-04-15T04:44:27.755Z,0.00
2018-04-15T04:45:27.781Z,0.00
2018-04-15T04:47:20.697Z,0.00
2018-04-15T04:48:20.706Z,0.00
2018-04-15T04:50:13.621Z,0.00
2018-04-15T04:51:13.642Z,0.00
2018-04-15T04:53:06.533Z,0.00
2018-04-15T04:54:06.551Z,0.00
2018-04-15T04:55:59.490Z,5.63
2018-04-15T04:56:59.509Z,5.63
2018-04-15T04:58:52.389Z,5.63
2018-04-15T04:59:52.415Z,5.63
2018-04-15T05:01:45.332Z,5.63
2018-04-15T05:02:45.336Z,5.63
2018-04-15T05:04:38.260Z,0.00
2018-04-15T05:05:38.281Z,0.00
2018-04-15T05:07:31.277Z,5.63
2018-04-15T05:08:31.223Z,5.63
2018-04-15T05:10:25.145Z,11.25
2018-04-15T05:11:25.151Z,5.63
2018-04-15T05:13:18.055Z,5.63
2018-04-15T05:14:18.081Z,5.63
2018-04-15T05:16:10.997Z,5.63
2018-04-15T05:17:11.049Z,11.25
2018-04-15T05:19:06.617Z,11.25
2018-04-15T05:20:03.923Z,11.25
2018-04-15T05:21:56.913Z,11.25
2018-04-15T05:22:56.842Z,11.25
2018-04-15T05:24:50.314Z,5.63
2018-04-15T05:25:49.800Z,11.25
2018-04-15T05:27:42.729Z,11.25
2018-04-15T05:28:42.739Z,16.88
2018-04-15T05:30:35.725Z,16.88
2018-04-15T05:31:35.690Z,11.25
2018-04-15T05:33:28.601Z,11.25
2018-04-15T05:34:28.641Z,11.25
2018-04-15T05:36:21.570Z,11.25
2018-04-15T05:37:21.577Z,11.25
2018-04-15T05:39:15.346Z,16.88
2018-04-15T05:40:15.373Z,22.50
2018-04-15T05:42:08.318Z,16.88
2018-04-15T05:43:08.322Z,16.88
2018-04-15T05:45:01.223Z,16.88
2018-04-15T05:46:01.243Z,22.50
2018-04-15T05:47:54.174Z,16.88
2018-04-15T05:48:54.174Z,11.25
2018-04-15T05:50:47.099Z,16.88
2018-04-15T05:51:47.103Z,22.50
2018-04-15T05:53:40.013Z,28.13
2018-04-15T05:54:40.037Z,28.13
2018-04-15T05:56:32.952Z,16.88
2018-04-15T05:57:32.953Z,11.25
2018-04-15T05:59:26.941Z,5.63
2018-04-15T06:00:26.870Z,11.25
2018-04-15T06:02:19.788Z,22.50
2018-04-15T06:03:19.819Z,22.50
2018-04-15T06:05:12.711Z,28.13
2018-04-15T06:06:12.720Z,33.75
2018-04-15T06:08:05.632Z,33.75
2018-04-15T06:09:05.636Z,33.75
2018-04-15T06:10:58.555Z,28.13
2018-04-15T06:11:58.569Z,28.13
2018-04-15T06:13:51.459Z,33.75
2018-04-15T06:14:51.532Z,39.38
2018-04-15T06:16:44.399Z,39.38
2018-04-15T06:17:44.403Z,39.38
2018-04-15T06:19:37.304Z,39.38
2018-04-15T06:20:37.326Z,45.00
2018-04-15T06:22:30.244Z,45.00
2018-04-15T06:23:30.247Z,45.00
2018-04-15T06:25:23.178Z,50.63
2018-04-15T06:26:23.190Z,50.63
2018-04-15T06:28:16.272Z,45.00
2018-04-15T06:29:16.279Z,45.00
2018-04-15T06:31:09.347Z,39.38
2018-04-15T06:32:09.351Z,39.38
2018-04-15T06:34:02.251Z,45.00
2018-04-15T06:35:02.272Z,45.00
2018-04-15T06:36:55.237Z,45.00
2018-04-15T06:37:55.201Z,45.00
2018-04-15T06:39:48.272Z,50.63
2018-04-15T06:40:48.302Z,50.63
2018-04-15T06:42:41.212Z,50.63
2018-04-15T06:43:41.217Z,50.63
2018-04-15T06:45:34.282Z,50.63
2018-04-15T06:46:34.304Z,50.63
2018-04-15T06:48:27.378Z,50.63
2018-04-15T06:49:27.381Z,45.00
2018-04-15T06:51:20.304Z,61.88
2018-04-15T06:52:20.303Z,67.50
2018-04-15T06:54:13.371Z,78.75
2018-04-15T06:55:13.383Z,84.38
2018-04-15T06:57:06.303Z,90.00
2018-04-15T06:58:06.304Z,95.63
2018-04-15T06:59:59.776Z,101.25
2018-04-15T07:00:59.232Z,106.88
2018-04-15T07:02:52.146Z,106.88
2018-04-15T07:03:52.151Z,106.88
2018-04-15T07:05:45.051Z,118.13
2018-04-15T07:06:45.075Z,123.75
2018-04-15T07:08:37.993Z,112.50
2018-04-15T07:09:38.061Z,118.13
2018-04-15T07:11:30.913Z,118.13
2018-04-15T07:12:30.915Z,112.50
2018-04-15T07:14:23.815Z,118.13
2018-04-15T07:15:23.839Z,123.75
2018-04-15T07:17:16.919Z,129.38
2018-04-15T07:18:16.921Z,129.38
2018-04-15T07:20:09.890Z,140.63
2018-04-15T07:21:09.840Z,146.25
2018-04-15T07:23:02.779Z,151.88
2018-04-15T07:24:02.786Z,157.50
2018-04-15T07:25:55.689Z,146.25
2018-04-15T07:26:55.710Z,146.25
2018-04-15T07:28:48.638Z,146.25
2018-04-15T07:29:48.647Z,140.63
2018-04-15T07:31:41.566Z,129.38
2018-04-15T07:32:41.565Z,129.38
2018-04-15T07:34:34.471Z,123.75
2018-04-15T07:35:34.494Z,118.13
2018-04-15T07:37:27.483Z,129.38
2018-04-15T07:38:27.415Z,129.38
2018-04-15T07:40:20.326Z,129.38
2018-04-15T07:41:20.360Z,129.38
2018-04-15T07:43:13.271Z,140.63
2018-04-15T07:44:13.279Z,146.25
2018-04-15T07:46:06.178Z,135.00
2018-04-15T07:47:06.203Z,135.00
2018-04-15T07:48:59.126Z,146.25
2018-04-15T07:49:59.126Z,140.63
2018-04-15T07:51:52.052Z,157.50
2018-04-15T07:52:52.053Z,180.00
2018-04-15T07:54:44.957Z,185.63
2018-04-15T07:55:44.982Z,180.00
2018-04-15T07:57:38.060Z,213.75
2018-04-15T07:58:38.055Z,219.38
2018-04-15T08:00:30.961Z,236.25
2018-04-15T08:01:30.980Z,247.50
2018-04-15T08:03:23.903Z,247.50
2018-04-15T08:04:23.906Z,253.13
2018-04-15T08:06:16.813Z,230.63
2018-04-15T08:07:16.835Z,258.75
2018-04-15T08:09:09.759Z,264.38
2018-04-15T08:10:09.763Z,253.13
2018-04-15T08:12:02.685Z,258.75
2018-04-15T08:13:02.733Z,270.00
2018-04-15T08:14:55.752Z,286.88
2018-04-15T08:15:55.776Z,258.75
2018-04-15T08:17:48.854Z,298.13
2018-04-15T08:18:48.856Z,315.00
2018-04-15T08:20:41.767Z,315.00
2018-04-15T08:21:41.886Z,298.13
2018-04-15T08:23:34.904Z,286.88
2018-04-15T08:24:34.864Z,281.25
2018-04-15T08:26:27.978Z,275.63
2018-04-15T08:27:28.002Z,281.25
2018-04-15T08:29:21.441Z,303.75
2018-04-15T08:30:21.452Z,315.00
2018-04-15T08:32:14.575Z,331.88
2018-04-15T08:33:14.526Z,354.38
2018-04-15T08:35:07.659Z,365.63
2018-04-15T08:36:07.687Z,405.00
2018-04-15T08:38:00.860Z,506.25
2018-04-15T08:39:00.843Z,483.75
2018-04-15T08:40:53.991Z,551.25
2018-04-15T08:41:54.067Z,517.50
2018-04-15T08:43:47.432Z,365.63
2018-04-15T08:44:47.439Z,343.13
2018-04-15T08:46:40.343Z,320.63
2018-04-15T08:47:40.368Z,337.50
2018-04-15T08:49:33.472Z,427.50
2018-04-15T08:50:33.476Z,410.63
2018-04-15T08:52:26.404Z,410.63
2018-04-15T08:53:26.410Z,382.50
2018-04-15T08:55:19.319Z,410.63
2018-04-15T08:56:19.344Z,427.50
2018-04-15T08:58:12.335Z,483.75
2018-04-15T08:59:12.270Z,511.88
2018-04-15T09:01:05.179Z,562.50
2018-04-15T09:02:05.201Z,630.00
2018-04-15T09:03:58.132Z,691.88
2018-04-15T09:04:58.144Z,714.38
2018-04-15T09:06:51.045Z,624.38
2018-04-15T09:07:51.070Z,551.25
2018-04-15T09:09:45.053Z,455.63
2018-04-15T09:10:45.001Z,393.75
2018-04-15T09:12:38.016Z,461.25
2018-04-15T09:13:37.936Z,461.25
2018-04-15T09:15:31.061Z,444.38
2018-04-15T09:16:31.089Z,421.88
2018-04-15T09:18:24.011Z,444.38
2018-04-15T09:19:24.018Z,495.00
2018-04-15T09:21:16.929Z,461.25
2018-04-15T09:22:16.955Z,495.00
2018-04-15T09:24:10.955Z,725.63
2018-04-15T09:25:10.897Z,776.25
2018-04-15T09:27:03.873Z,838.13
2018-04-15T09:28:03.854Z,624.38
2018-04-15T09:29:56.790Z,511.88
2018-04-15T09:30:56.795Z,511.88
2018-04-15T09:32:49.723Z,523.13
2018-04-15T09:33:49.736Z,590.63
2018-04-15T09:35:42.648Z,495.00
2018-04-15T09:36:42.676Z,528.75
2018-04-15T09:38:35.836Z,686.25
2018-04-15T09:39:35.847Z,714.38
2018-04-15T09:41:28.759Z,787.50
2018-04-15T09:42:28.787Z,697.50
2018-04-15T09:44:21.891Z,675.00
2018-04-15T09:45:21.876Z,607.50
2018-04-15T09:47:14.804Z,630.00
2018-04-15T09:48:14.813Z,776.25
2018-04-15T09:50:07.743Z,635.63
2018-04-15T09:51:07.760Z,624.38
2018-04-15T09:53:00.685Z,573.75
2018-04-15T09:54:00.693Z,708.75
2018-04-15T09:55:53.605Z,607.50
2018-04-15T09:56:53.638Z,489.38
2018-04-15T09:58:46.564Z,528.75
2018-04-15T09:59:46.574Z,466.88
2018-04-15T10:01:39.489Z,495.00
2018-04-15T10:02:39.520Z,500.63
2018-04-15T10:04:32.632Z,427.50
2018-04-15T10:05:32.643Z,483.75
2018-04-15T10:07:25.579Z,545.63
2018-04-15T10:08:25.608Z,540.00
2018-04-15T10:10:21.458Z,483.75
2018-04-15T10:11:18.550Z,455.63
2018-04-15T10:13:11.483Z,303.75
2018-04-15T10:14:11.497Z,320.63
2018-04-15T10:16:04.406Z,399.38
2018-04-15T10:17:04.432Z,348.75
2018-04-15T10:18:58.620Z,348.75
2018-04-15T10:19:58.657Z,382.50
2018-04-15T10:21:51.537Z,410.63
2018-04-15T10:22:51.565Z,461.25
2018-04-15T10:24:44.495Z,573.75
2018-04-15T10:25:44.502Z,545.63
2018-04-15T10:27:37.414Z,405.00
2018-04-15T10:28:37.443Z,416.25
2018-04-15T10:30:30.871Z,388.13
2018-04-15T10:31:30.877Z,433.13
2018-04-15T10:33:23.812Z,421.88
2018-04-15T10:34:23.818Z,421.88
2018-04-15T10:36:17.878Z,573.75
2018-04-15T10:37:17.921Z,562.50
2018-04-15T10:39:10.837Z,444.38
2018-04-15T10:40:10.844Z,472.50
2018-04-15T10:42:04.345Z,365.63
2018-04-15T10:43:03.813Z,337.50
2018-04-15T10:44:56.723Z,343.13
2018-04-15T10:45:56.751Z,348.75
2018-04-15T10:47:49.688Z,405.00
2018-04-15T10:48:49.692Z,466.88
2018-04-15T10:50:42.674Z,545.63
2018-04-15T10:51:42.642Z,601.88
2018-04-15T10:53:35.903Z,590.63
2018-04-15T10:54:35.752Z,511.88
2018-04-15T10:56:28.886Z,495.00
2018-04-15T10:57:28.882Z,545.63
2018-04-15T10:59:22.033Z,450.00
2018-04-15T11:00:22.041Z,427.50
2018-04-15T11:02:15.174Z,596.25
2018-04-15T11:03:15.201Z,500.63
2018-04-15T11:05:08.351Z,405.00
2018-04-15T11:06:08.370Z,416.25
2018-04-15T11:08:01.281Z,326.25
2018-04-15T11:09:01.307Z,298.13
2018-04-15T11:10:54.462Z,286.88
2018-04-15T11:11:54.468Z,270.00
2018-04-15T11:13:48.554Z,253.13
2018-04-15T11:14:48.564Z,258.75
2018-04-15T11:16:41.681Z,247.50
2018-04-15T11:17:41.709Z,247.50
2018-04-15T11:19:35.142Z,286.88
2018-04-15T11:20:35.200Z,270.00
2018-04-15T11:22:28.065Z,343.13
2018-04-15T11:23:28.096Z,360.00
2018-04-15T11:25:21.026Z,365.63
2018-04-15T11:26:21.034Z,371.25
2018-04-15T11:28:13.956Z,466.88
2018-04-15T11:29:13.980Z,438.75
2018-04-15T11:31:07.480Z,466.88
2018-04-15T11:32:07.426Z,461.25
2018-04-15T11:34:00.549Z,461.25
2018-04-15T11:35:00.559Z,472.50
2018-04-15T11:36:53.493Z,528.75
2018-04-15T11:38:00.629Z,556.88
2018-04-15T11:39:46.437Z,466.88
2018-04-15T11:40:46.446Z,450.00
2018-04-15T11:42:39.362Z,405.00
2018-04-15T11:43:39.394Z,382.50
2018-04-15T11:45:32.327Z,371.25
2018-04-15T11:46:32.337Z,393.75
2018-04-15T11:48:25.247Z,393.75
2018-04-15T11:49:25.282Z,416.25
2018-04-15T11:51:18.233Z,427.50
2018-04-15T11:52:18.222Z,438.75
2018-04-15T11:54:11.137Z,483.75
2018-04-15T11:55:11.169Z,500.63
2018-04-15T11:57:04.288Z,534.38
2018-04-15T11:58:04.296Z,568.13
2018-04-15T11:59:57.231Z,511.88
2018-04-15T12:00:57.238Z,511.88
2018-04-15T12:02:50.383Z,438.75
2018-04-15T12:03:50.408Z,421.88
2018-04-15T12:05:43.350Z,399.38
2018-04-15T12:06:43.361Z,360.00
2018-04-15T12:08:36.274Z,388.13
2018-04-15T12:09:36.312Z,438.75
2018-04-15T12:11:29.284Z,388.13
2018-04-15T12:12:29.271Z,416.25
2018-04-15T12:14:22.185Z,410.63
2018-04-15T12:15:22.211Z,309.38
2018-04-15T12:17:15.217Z,236.25
2018-04-15T12:18:15.164Z,247.50
2018-04-15T12:20:08.104Z,253.13
2018-04-15T12:21:08.105Z,225.00
2018-04-15T12:23:01.021Z,213.75
2018-04-15T12:24:01.058Z,213.75
2018-04-15T12:25:53.990Z,208.13
2018-04-15T12:26:54.001Z,247.50
2018-04-15T12:28:46.915Z,320.63
2018-04-15T12:29:46.951Z,331.88
2018-04-15T12:31:39.893Z,438.75
2018-04-15T12:32:39.902Z,478.13
2018-04-15T12:34:32.818Z,495.00
2018-04-15T12:35:32.846Z,466.88
2018-04-15T12:37:25.792Z,427.50
2018-04-15T12:38:25.799Z,416.25
2018-04-15T12:40:18.717Z,376.88
2018-04-15T12:41:18.751Z,382.50
2018-04-15T12:43:11.727Z,354.38
2018-04-15T12:44:11.730Z,343.13
2018-04-15T12:46:04.682Z,382.50
2018-04-15T12:47:04.728Z,455.63
2018-04-15T12:48:57.699Z,551.25
2018-04-15T12:49:57.651Z,579.38
2018-04-15T12:51:50.598Z,556.88
2018-04-15T12:52:50.586Z,483.75
2018-04-15T12:54:44.017Z,360.00
2018-04-15T12:55:44.046Z,343.13
2018-04-15T12:57:38.511Z,450.00
2018-04-15T12:58:38.507Z,478.13
2018-04-15T13:00:36.493Z,489.38
2018-04-15T13:01:36.465Z,489.38
2018-04-15T13:03:30.900Z,556.88
2018-04-15T13:04:30.913Z,573.75
2018-04-15T13:06:24.356Z,450.00
2018-04-15T13:07:24.368Z,410.63
2018-04-15T13:09:17.784Z,365.63
2018-04-15T13:10:17.816Z,365.63
2018-04-15T13:12:11.253Z,343.13
2018-04-15T13:13:11.260Z,337.50
2018-04-15T13:15:04.677Z,264.38
2018-04-15T13:16:04.707Z,281.25
2018-04-15T13:17:58.184Z,270.00
2018-04-15T13:18:58.194Z,286.88
2018-04-15T13:20:51.624Z,388.13
2018-04-15T13:21:51.640Z,427.50
2018-04-15T13:23:45.085Z,455.63
2018-04-15T13:24:45.089Z,450.00
2018-04-15T13:26:38.574Z,450.00
2018-04-15T13:27:38.533Z,472.50
2018-04-15T13:29:32.978Z,388.13
2018-04-15T13:30:32.990Z,376.88
2018-04-15T13:32:27.450Z,303.75
2018-04-15T13:33:27.439Z,292.50
2018-04-15T13:35:21.857Z,258.75
2018-04-15T13:36:21.901Z,236.25
2018-04-15T13:38:14.832Z,225.00
2018-04-15T13:39:14.846Z,219.38
2018-04-15T13:41:07.764Z,219.38
2018-04-15T13:42:07.792Z,230.63
2018-04-15T13:44:00.734Z,253.13
2018-04-15T13:45:00.748Z,253.13
2018-04-15T13:46:54.721Z,241.88
2018-04-15T13:47:54.700Z,253.13
2018-04-15T13:49:48.189Z,264.38
2018-04-15T13:50:48.149Z,236.25
2018-04-15T13:52:41.084Z,208.13
2018-04-15T13:53:41.096Z,202.50
2018-04-15T13:55:34.041Z,208.13
2018-04-15T13:56:34.050Z,213.75
2018-04-15T13:58:26.967Z,225.00
2018-04-15T13:59:26.997Z,236.25
2018-04-15T14:01:19.942Z,225.00
2018-04-15T14:02:19.957Z,225.00
2018-04-15T14:04:13.404Z,219.38
2018-04-15T14:05:13.437Z,219.38
2018-04-15T14:07:06.374Z,230.63
2018-04-15T14:08:06.380Z,230.63
2018-04-15T14:09:59.299Z,225.00
2018-04-15T14:10:59.326Z,219.38
2018-04-15T14:12:52.266Z,219.38
2018-04-15T14:13:52.282Z,225.00
2018-04-15T14:15:46.380Z,225.00
2018-04-15T14:16:46.421Z,241.88
2018-04-15T14:18:39.839Z,258.75
2018-04-15T14:19:39.307Z,253.13
2018-04-15T14:21:32.491Z,241.88
2018-04-15T14:22:32.456Z,236.25
2018-04-15T14:24:25.418Z,225.00
2018-04-15T14:25:25.425Z,219.38
2018-04-15T14:27:18.350Z,208.13
2018-04-15T14:28:18.363Z,208.13
2018-04-15T14:30:11.297Z,213.75
2018-04-15T14:31:11.306Z,213.75
2018-04-15T14:33:04.245Z,213.75
2018-04-15T14:34:04.254Z,219.38
2018-04-15T14:35:57.311Z,253.13
2018-04-15T14:36:57.218Z,253.13
2018-04-15T14:38:50.140Z,236.25
2018-04-15T14:39:50.169Z,225.00
2018-04-15T14:41:43.128Z,219.38
2018-04-15T14:42:43.134Z,219.38
2018-04-15T14:44:36.612Z,225.00
2018-04-15T14:45:36.596Z,225.00
2018-04-15T14:47:29.638Z,225.00
2018-04-15T14:48:29.646Z,225.00
2018-04-15T14:50:22.576Z,219.38
2018-04-15T14:51:22.606Z,219.38
2018-04-15T14:53:15.650Z,219.38
2018-04-15T14:54:15.658Z,219.38
2018-04-15T14:56:09.115Z,230.63
2018-04-15T14:57:09.124Z,230.63
2018-04-15T14:59:02.071Z,230.63
2018-04-15T15:00:02.183Z,230.63
2018-04-15T15:01:55.590Z,225.00
2018-04-15T15:02:55.599Z,225.00
2018-04-15T15:04:49.089Z,219.38
2018-04-15T15:05:49.115Z,219.38
2018-04-15T15:07:42.847Z,213.75
2018-04-15T15:08:42.684Z,230.63
2018-04-15T15:10:35.617Z,241.88
2018-04-15T15:11:35.639Z,241.88
2018-04-15T15:13:30.188Z,241.88
2018-04-15T15:14:30.166Z,241.88
2018-04-15T15:16:23.172Z,230.63
2018-04-15T15:17:23.183Z,225.00
2018-04-15T15:19:16.222Z,208.13
2018-04-15T15:20:16.238Z,208.13
2018-04-15T15:22:09.184Z,202.50
2018-04-15T15:23:09.191Z,196.88
2018-04-15T15:25:02.245Z,185.63
2018-04-15T15:26:02.250Z,185.63
2018-04-15T15:27:55.431Z,191.25
2018-04-15T15:28:55.320Z,196.88
2018-04-15T15:30:48.337Z,196.88
2018-04-15T15:31:48.364Z,202.50
2018-04-15T15:33:41.408Z,208.13
2018-04-15T15:34:41.504Z,208.13
2018-04-15T15:36:34.550Z,219.38
2018-04-15T15:37:34.562Z,225.00
2018-04-15T15:39:27.501Z,225.00
2018-04-15T15:40:27.530Z,225.00
2018-04-15T15:42:20.476Z,241.88
2018-04-15T15:43:20.489Z,253.13
2018-04-15T15:45:13.413Z,258.75
2018-04-15T15:46:13.446Z,270.00
2018-04-15T15:48:06.895Z,281.25
2018-04-15T15:49:06.904Z,270.00
2018-04-15T15:51:00.343Z,264.38
2018-04-15T15:52:00.371Z,258.75
2018-04-15T15:53:53.417Z,253.13
2018-04-15T15:54:53.426Z,258.75
2018-04-15T15:56:46.886Z,270.00
2018-04-15T15:57:46.904Z,270.00
2018-04-15T15:59:42.916Z,270.00
2018-04-15T16:00:42.943Z,270.00
2018-04-15T16:02:35.963Z,270.00
2018-04-15T16:03:35.974Z,264.38
2018-04-15T16:05:28.934Z,264.38
2018-04-15T16:06:28.972Z,264.38
2018-04-15T16:08:21.972Z,258.75
2018-04-15T16:09:22.003Z,258.75
2018-04-15T16:11:15.422Z,258.75
2018-04-15T16:12:15.526Z,253.13
2018-04-15T16:14:08.909Z,247.50
2018-04-15T16:15:08.938Z,247.50
2018-04-15T16:17:05.303Z,247.50
2018-04-15T16:18:05.254Z,247.50
2018-04-15T16:19:58.792Z,241.88
2018-04-15T16:20:58.829Z,236.25
2018-04-15T16:22:53.328Z,236.25
2018-04-15T16:23:53.337Z,230.63
2018-04-15T16:25:46.758Z,230.63
2018-04-15T16:26:46.879Z,225.00
2018-04-15T16:28:39.822Z,225.00
2018-04-15T16:29:39.828Z,225.00
2018-04-15T16:31:33.425Z,219.38
2018-04-15T16:32:33.316Z,219.38
2018-04-15T16:34:26.835Z,208.13
2018-04-15T16:35:26.863Z,202.50
2018-04-15T16:37:20.367Z,191.25
2018-04-15T16:38:20.419Z,191.25
2018-04-15T16:40:13.810Z,185.63
2018-04-15T16:41:13.873Z,180.00
2018-04-15T16:43:07.373Z,174.38
2018-04-15T16:44:07.381Z,174.38
2018-04-15T16:46:00.901Z,168.75
2018-04-15T16:47:00.930Z,163.13
2018-04-15T16:48:53.993Z,163.13
2018-04-15T16:49:53.985Z,163.13
2018-04-15T16:51:46.937Z,163.13
2018-04-15T16:52:46.940Z,163.13
2018-04-15T16:54:40.377Z,157.50
2018-04-15T16:55:40.406Z,157.50
2018-04-15T16:57:33.862Z,151.88
2018-04-15T16:58:33.871Z,151.88
2018-04-15T17:00:27.365Z,151.88
2018-04-15T17:01:27.335Z,146.25
2018-04-15T17:03:20.289Z,140.63
2018-04-15T17:04:20.320Z,140.63
2018-04-15T17:06:14.779Z,135.00
2018-04-15T17:07:14.781Z,129.38
2018-04-15T17:09:07.858Z,123.75
2018-04-15T17:10:07.906Z,118.13
2018-04-15T17:12:01.298Z,118.13
2018-04-15T17:13:01.308Z,112.50
2018-04-15T17:14:54.353Z,106.88
2018-04-15T17:15:54.358Z,106.88
2018-04-15T17:17:47.302Z,106.88
2018-04-15T17:18:47.325Z,106.88
2018-04-15T17:20:40.801Z,95.63
2018-04-15T17:21:40.788Z,95.63
2018-04-15T17:23:34.306Z,90.00
2018-04-15T17:24:34.267Z,84.38
2018-04-15T17:26:27.281Z,78.75
2018-04-15T17:27:27.350Z,78.75
2018-04-15T17:29:20.775Z,67.50
2018-04-15T17:30:20.764Z,67.50
2018-04-15T17:32:13.713Z,61.88
2018-04-15T17:33:13.717Z,56.25
2018-04-15T17:35:06.661Z,56.25
2018-04-15T17:36:06.720Z,50.63
2018-04-15T17:37:59.671Z,50.63
2018-04-15T17:38:59.633Z,45.00
2018-04-15T17:40:52.579Z,45.00
2018-04-15T17:41:52.585Z,45.00
2018-04-15T17:43:45.607Z,39.38
2018-04-15T17:44:45.583Z,39.38
2018-04-15T17:46:38.492Z,39.38
2018-04-15T17:47:38.519Z,39.38
2018-04-15T17:49:31.955Z,33.75
2018-04-15T17:50:31.957Z,33.75
2018-04-15T17:52:25.004Z,33.75
2018-04-15T17:53:25.048Z,33.75
2018-04-15T17:55:18.088Z,33.75
2018-04-15T17:56:18.142Z,33.75
2018-04-15T17:58:11.625Z,28.13
2018-04-15T17:59:11.646Z,28.13
2018-04-15T18:01:04.584Z,28.13
2018-04-15T18:02:04.610Z,22.50
2018-04-15T18:03:58.456Z,22.50
2018-04-15T18:04:58.463Z,22.50
2018-04-15T18:06:51.390Z,22.50
2018-04-15T18:07:51.417Z,16.88
2018-04-15T18:09:44.370Z,16.88
2018-04-15T18:10:44.373Z,16.88
2018-04-15T18:12:37.927Z,11.25
2018-04-15T18:13:37.888Z,11.25
2018-04-15T18:15:31.312Z,11.25
2018-04-15T18:16:31.303Z,11.25
2018-04-15T18:18:24.284Z,5.63
2018-04-15T18:19:24.310Z,5.63
2018-04-15T18:21:17.193Z,5.63
2018-04-15T18:22:17.213Z,5.63
2018-04-15T18:24:10.184Z,5.63
2018-04-15T18:25:10.176Z,5.63